sensor_id;sensor_type;location;lat;lon;timestamp;temperature;humidity
10304;DHT22;5197;48.152;8.590;2023-02-15T00:00:06;0.90;11.20
10304;DHT22;5197;48.152;8.590;2023-02-15T00:02:42;1.80;12.00
10304;DHT22;5197;48.152;8.590;2023-02-15T00:05:09;0.90;11.50
10304;DHT22;5197;48.152;8.590;2023-02-15T00:07:36;0.90;11.70
10304;DHT22;5197;48.152;8.590;2023-02-15T00:10:03;0.80;11.70
10304;DHT22;5197;48.152;8.590;2023-02-15T00:12:30;0.80;11.70
10304;DHT22;5197;48.152;8.590;2023-02-15T00:14:57;0.80;11.90
10304;DHT22;5197;48.152;8.590;2023-02-15T00:17:33;0.80;11.80
10304;DHT22;5197;48.152;8.590;2023-02-15T00:19:59;0.80;11.80
10304;DHT22;5197;48.152;8.590;2023-02-15T00:22:26;0.70;11.90
10304;DHT22;5197;48.152;8.590;2023-02-15T00:24:53;0.70;12.00
10304;DHT22;5197;48.152;8.590;2023-02-15T00:27:20;0.70;12.00
10304;DHT22;5197;48.152;8.590;2023-02-15T00:29:47;0.60;12.00
10304;DHT22;5197;48.152;8.590;2023-02-15T00:32:14;0.60;12.00
10304;DHT22;5197;48.152;8.590;2023-02-15T00:34:41;0.60;12.10
10304;DHT22;5197;48.152;8.590;2023-02-15T00:37:07;0.50;12.10
10304;DHT22;5197;48.152;8.590;2023-02-15T00:39:34;0.50;12.10
10304;DHT22;5197;48.152;8.590;2023-02-15T00:42:01;0.40;12.30
10304;DHT22;5197;48.152;8.590;2023-02-15T00:44:28;0.40;12.30
10304;DHT22;5197;48.152;8.590;2023-02-15T00:46:54;0.40;12.40
10304;DHT22;5197;48.152;8.590;2023-02-15T00:49:21;0.30;12.50
10304;DHT22;5197;48.152;8.590;2023-02-15T00:51:48;0.20;12.50
10304;DHT22;5197;48.152;8.590;2023-02-15T00:54:15;0.20;12.60
10304;DHT22;5197;48.152;8.590;2023-02-15T00:56:42;0.20;12.60
10304;DHT22;5197;48.152;8.590;2023-02-15T00:59:09;0.20;12.80
10304;DHT22;5197;48.152;8.590;2023-02-15T01:01:35;0.20;12.80
10304;DHT22;5197;48.152;8.590;2023-02-15T01:04:03;0.20;12.80
10304;DHT22;5197;48.152;8.590;2023-02-15T01:06:29;0.10;12.90
10304;DHT22;5197;48.152;8.590;2023-02-15T01:08:57;0.10;12.80
10304;DHT22;5197;48.152;8.590;2023-02-15T01:11:23;0.10;12.90
10304;DHT22;5197;48.152;8.590;2023-02-15T01:13:53;0.10;13.10
10304;DHT22;5197;48.152;8.590;2023-02-15T01:16:20;0.10;13.20
10304;DHT22;5197;48.152;8.590;2023-02-15T01:18:48;0.00;13.20
10304;DHT22;5197;48.152;8.590;2023-02-15T01:21:18;0.00;13.70
10304;DHT22;5197;48.152;8.590;2023-02-15T01:23:46;0.00;13.40
10304;DHT22;5197;48.152;8.590;2023-02-15T01:26:13;0.00;13.80
10304;DHT22;5197;48.152;8.590;2023-02-15T01:28:40;0.00;14.00
10304;DHT22;5197;48.152;8.590;2023-02-15T01:31:15;0.00;14.20
10304;DHT22;5197;48.152;8.590;2023-02-15T01:33:44;0.00;15.20
10304;DHT22;5197;48.152;8.590;2023-02-15T01:36:11;0.00;15.20
10304;DHT22;5197;48.152;8.590;2023-02-15T01:38:38;0.10;15.30
10304;DHT22;5197;48.152;8.590;2023-02-15T01:41:06;0.10;15.30
10304;DHT22;5197;48.152;8.590;2023-02-15T01:44:00;0.00;15.20
10304;DHT22;5197;48.152;8.590;2023-02-15T01:49:19;0.00;15.20
10304;DHT22;5197;48.152;8.590;2023-02-15T01:51:48;-0.10;15.10
10304;DHT22;5197;48.152;8.590;2023-02-15T01:54:27;-0.10;15.10
10304;DHT22;5197;48.152;8.590;2023-02-15T01:57:00;-0.10;15.20
10304;DHT22;5197;48.152;8.590;2023-02-15T01:59:28;-0.10;15.20
10304;DHT22;5197;48.152;8.590;2023-02-15T02:01:59;-0.10;15.20
10304;DHT22;5197;48.152;8.590;2023-02-15T02:04:40;-0.10;15.20
10304;DHT22;5197;48.152;8.590;2023-02-15T02:07:09;-0.10;15.10
10304;DHT22;5197;48.152;8.590;2023-02-15T02:09:39;-0.10;15.10
10304;DHT22;5197;48.152;8.590;2023-02-15T02:12:06;-0.20;15.00
10304;DHT22;5197;48.152;8.590;2023-02-15T02:14:34;-0.20;15.10
10304;DHT22;5197;48.152;8.590;2023-02-15T02:20:07;-0.30;15.00
10304;DHT22;5197;48.152;8.590;2023-02-15T02:25:36;-0.50;14.10
10304;DHT22;5197;48.152;8.590;2023-02-15T02:32:21;-0.50;15.00
10304;DHT22;5197;48.152;8.590;2023-02-15T02:34:31;-0.50;14.90
10304;DHT22;5197;48.152;8.590;2023-02-15T02:37:08;-0.50;14.90
10304;DHT22;5197;48.152;8.590;2023-02-15T02:42:56;-0.50;14.90
10304;DHT22;5197;48.152;8.590;2023-02-15T02:45:30;-0.50;14.90
10304;DHT22;5197;48.152;8.590;2023-02-15T02:48:11;-0.50;14.90
10304;DHT22;5197;48.152;8.590;2023-02-15T02:50:41;-0.50;14.90
10304;DHT22;5197;48.152;8.590;2023-02-15T02:53:09;-0.50;15.00
10304;DHT22;5197;48.152;8.590;2023-02-15T02:56:11;-0.50;14.90
10304;DHT22;5197;48.152;8.590;2023-02-15T02:58:44;-0.40;15.00
10304;DHT22;5197;48.152;8.590;2023-02-15T03:01:27;-0.30;15.00
10304;DHT22;5197;48.152;8.590;2023-02-15T03:04:12;-0.20;15.10
10304;DHT22;5197;48.152;8.590;2023-02-15T03:09:31;-0.10;15.20
10304;DHT22;5197;48.152;8.590;2023-02-15T03:14:44;-0.10;15.20
10304;DHT22;5197;48.152;8.590;2023-02-15T03:17:16;-0.10;15.20
10304;DHT22;5197;48.152;8.590;2023-02-15T03:19:45;-0.10;15.20
10304;DHT22;5197;48.152;8.590;2023-02-15T03:25:13;-0.20;15.00
10304;DHT22;5197;48.152;8.590;2023-02-15T03:27:51;-0.20;15.10
10304;DHT22;5197;48.152;8.590;2023-02-15T03:30:21;-0.30;15.00
10304;DHT22;5197;48.152;8.590;2023-02-15T03:32:49;-0.40;15.00
10304;DHT22;5197;48.152;8.590;2023-02-15T03:35:21;-0.40;15.00
10304;DHT22;5197;48.152;8.590;2023-02-15T03:37:52;-0.50;14.90
10304;DHT22;5197;48.152;8.590;2023-02-15T03:40:38;-0.50;14.90
10304;DHT22;5197;48.152;8.590;2023-02-15T03:43:35;-0.50;14.90
10304;DHT22;5197;48.152;8.590;2023-02-15T03:46:16;-0.50;14.90
10304;DHT22;5197;48.152;8.590;2023-02-15T03:48:49;-0.50;14.90
10304;DHT22;5197;48.152;8.590;2023-02-15T03:51:20;-0.50;15.00
10304;DHT22;5197;48.152;8.590;2023-02-15T03:54:30;-0.50;14.90
10304;DHT22;5197;48.152;8.590;2023-02-15T03:57:25;-0.50;14.90
10304;DHT22;5197;48.152;8.590;2023-02-15T04:00:23;-0.50;14.90
10304;DHT22;5197;48.152;8.590;2023-02-15T04:03:27;-0.60;14.90
10304;DHT22;5197;48.152;8.590;2023-02-15T04:05:55;-0.60;14.90
10304;DHT22;5197;48.152;8.590;2023-02-15T04:08:22;-0.70;14.80
10304;DHT22;5197;48.152;8.590;2023-02-15T04:11:09;-0.70;14.80
10304;DHT22;5197;48.152;8.590;2023-02-15T04:13:35;-0.80;14.70
10304;DHT22;5197;48.152;8.590;2023-02-15T04:16:03;-0.80;14.80
10304;DHT22;5197;48.152;8.590;2023-02-15T04:18:33;-0.70;14.80
10304;DHT22;5197;48.152;8.590;2023-02-15T04:21:20;-0.80;14.70
10304;DHT22;5197;48.152;8.590;2023-02-15T04:24:06;-0.80;14.70
10304;DHT22;5197;48.152;8.590;2023-02-15T04:26:52;-0.80;14.70
10304;DHT22;5197;48.152;8.590;2023-02-15T04:29:24;-0.80;14.70
10304;DHT22;5197;48.152;8.590;2023-02-15T04:31:52;-0.80;14.70
10304;DHT22;5197;48.152;8.590;2023-02-15T04:34:19;-0.90;14.60
10304;DHT22;5197;48.152;8.590;2023-02-15T04:36:46;-0.90;14.60
10304;DHT22;5197;48.152;8.590;2023-02-15T04:39:14;-0.90;14.70
10304;DHT22;5197;48.152;8.590;2023-02-15T04:41:41;-0.90;14.60
10304;DHT22;5197;48.152;8.590;2023-02-15T04:44:08;-1.00;14.60
10304;DHT22;5197;48.152;8.590;2023-02-15T04:46:35;-1.00;14.60
10304;DHT22;5197;48.152;8.590;2023-02-15T04:49:02;-1.00;14.70
10304;DHT22;5197;48.152;8.590;2023-02-15T04:51:29;-1.00;14.70
10304;DHT22;5197;48.152;8.590;2023-02-15T04:53:56;-1.00;14.60
10304;DHT22;5197;48.152;8.590;2023-02-15T04:56:23;-1.00;14.60
10304;DHT22;5197;48.152;8.590;2023-02-15T04:58:50;-1.00;14.60
10304;DHT22;5197;48.152;8.590;2023-02-15T05:01:18;-1.00;14.60
10304;DHT22;5197;48.152;8.590;2023-02-15T05:03:44;-1.10;14.60
10304;DHT22;5197;48.152;8.590;2023-02-15T05:06:11;-1.10;14.60
10304;DHT22;5197;48.152;8.590;2023-02-15T05:08:38;-1.10;14.60
10304;DHT22;5197;48.152;8.590;2023-02-15T05:11:05;-1.10;14.50
10304;DHT22;5197;48.152;8.590;2023-02-15T05:13:32;-1.10;14.50
10304;DHT22;5197;48.152;8.590;2023-02-15T05:15:59;-1.10;14.50
10304;DHT22;5197;48.152;8.590;2023-02-15T05:18:26;-1.20;14.50
10304;DHT22;5197;48.152;8.590;2023-02-15T05:20:53;-1.20;14.50
10304;DHT22;5197;48.152;8.590;2023-02-15T05:23:20;-1.20;14.70
10304;DHT22;5197;48.152;8.590;2023-02-15T05:25:48;-1.20;14.60
10304;DHT22;5197;48.152;8.590;2023-02-15T05:28:36;-1.20;14.50
10304;DHT22;5197;48.152;8.590;2023-02-15T05:31:08;-1.20;14.40
10304;DHT22;5197;48.152;8.590;2023-02-15T05:33:36;-1.30;14.40
10304;DHT22;5197;48.152;8.590;2023-02-15T05:36:04;-1.30;14.40
10304;DHT22;5197;48.152;8.590;2023-02-15T05:38:31;-1.40;14.30
10304;DHT22;5197;48.152;8.590;2023-02-15T05:40:58;-1.40;14.30
10304;DHT22;5197;48.152;8.590;2023-02-15T05:43:25;-1.40;14.30
10304;DHT22;5197;48.152;8.590;2023-02-15T05:45:53;-1.40;14.30
10304;DHT22;5197;48.152;8.590;2023-02-15T05:48:23;-1.40;14.30
10304;DHT22;5197;48.152;8.590;2023-02-15T05:51:04;-1.40;14.30
10304;DHT22;5197;48.152;8.590;2023-02-15T05:53:34;-1.40;14.30
10304;DHT22;5197;48.152;8.590;2023-02-15T05:56:02;-1.50;14.30
10304;DHT22;5197;48.152;8.590;2023-02-15T05:58:33;-1.40;14.30
10304;DHT22;5197;48.152;8.590;2023-02-15T06:01:10;-1.50;14.30
10304;DHT22;5197;48.152;8.590;2023-02-15T06:03:37;-1.50;15.30
10304;DHT22;5197;48.152;8.590;2023-02-15T06:06:05;-1.50;14.40
10304;DHT22;5197;48.152;8.590;2023-02-15T06:08:34;-1.50;14.30
10304;DHT22;5197;48.152;8.590;2023-02-15T06:11:01;-1.60;14.30
10304;DHT22;5197;48.152;8.590;2023-02-15T06:13:28;-1.60;14.30
10304;DHT22;5197;48.152;8.590;2023-02-15T06:15:55;-1.60;14.30
10304;DHT22;5197;48.152;8.590;2023-02-15T06:18:22;-1.60;14.40
10304;DHT22;5197;48.152;8.590;2023-02-15T06:20:49;-1.60;14.70
10304;DHT22;5197;48.152;8.590;2023-02-15T06:23:16;-1.60;14.50
10304;DHT22;5197;48.152;8.590;2023-02-15T06:25:44;-1.70;14.50
10304;DHT22;5197;48.152;8.590;2023-02-15T06:28:12;-1.70;14.70
10304;DHT22;5197;48.152;8.590;2023-02-15T06:30:39;-1.70;14.90
10304;DHT22;5197;48.152;8.590;2023-02-15T06:33:06;-1.70;15.00
10304;DHT22;5197;48.152;8.590;2023-02-15T06:35:33;-1.70;15.10
10304;DHT22;5197;48.152;8.590;2023-02-15T06:38:00;-1.70;15.20
10304;DHT22;5197;48.152;8.590;2023-02-15T06:40:27;-1.70;15.40
10304;DHT22;5197;48.152;8.590;2023-02-15T06:42:54;-1.80;15.50
10304;DHT22;5197;48.152;8.590;2023-02-15T06:45:21;-1.70;15.70
10304;DHT22;5197;48.152;8.590;2023-02-15T06:47:48;-1.70;16.20
10304;DHT22;5197;48.152;8.590;2023-02-15T06:50:15;-1.60;16.00
10304;DHT22;5197;48.152;8.590;2023-02-15T06:52:41;-1.60;15.30
10304;DHT22;5197;48.152;8.590;2023-02-15T06:55:08;-1.60;15.30
10304;DHT22;5197;48.152;8.590;2023-02-15T06:57:35;-1.60;15.20
10304;DHT22;5197;48.152;8.590;2023-02-15T07:00:02;-1.60;15.50
10304;DHT22;5197;48.152;8.590;2023-02-15T07:02:31;-1.60;15.90
10304;DHT22;5197;48.152;8.590;2023-02-15T07:04:58;-1.60;16.00
10304;DHT22;5197;48.152;8.590;2023-02-15T07:07:25;-1.60;16.20
10304;DHT22;5197;48.152;8.590;2023-02-15T07:09:52;-1.50;16.40
10304;DHT22;5197;48.152;8.590;2023-02-15T07:12:18;-1.50;16.50
10304;DHT22;5197;48.152;8.590;2023-02-15T07:15:04;-1.50;16.70
10304;DHT22;5197;48.152;8.590;2023-02-15T07:17:33;-1.50;16.80
10304;DHT22;5197;48.152;8.590;2023-02-15T07:20:04;-1.40;17.10
10304;DHT22;5197;48.152;8.590;2023-02-15T07:22:31;-1.30;17.30
10304;DHT22;5197;48.152;8.590;2023-02-15T07:25:00;-1.20;18.00
10304;DHT22;5197;48.152;8.590;2023-02-15T07:27:27;-0.90;19.50
10304;DHT22;5197;48.152;8.590;2023-02-15T07:29:54;-0.60;20.90
10304;DHT22;5197;48.152;8.590;2023-02-15T07:32:21;-0.10;22.30
10304;DHT22;5197;48.152;8.590;2023-02-15T07:34:48;0.30;23.30
10304;DHT22;5197;48.152;8.590;2023-02-15T07:37:15;0.70;24.00
10304;DHT22;5197;48.152;8.590;2023-02-15T07:39:43;1.30;25.00
10304;DHT22;5197;48.152;8.590;2023-02-15T07:42:09;1.80;25.40
10304;DHT22;5197;48.152;8.590;2023-02-15T07:44:36;2.40;25.70
10304;DHT22;5197;48.152;8.590;2023-02-15T07:47:03;3.00;25.80
10304;DHT22;5197;48.152;8.590;2023-02-15T07:49:30;3.50;25.50
10304;DHT22;5197;48.152;8.590;2023-02-15T07:51:56;4.10;25.70
10304;DHT22;5197;48.152;8.590;2023-02-15T07:54:24;5.40;25.30
10304;DHT22;5197;48.152;8.590;2023-02-15T07:56:51;5.30;23.40
10304;DHT22;5197;48.152;8.590;2023-02-15T07:59:18;5.90;22.00
10304;DHT22;5197;48.152;8.590;2023-02-15T08:01:45;6.40;19.50
10304;DHT22;5197;48.152;8.590;2023-02-15T08:04:12;6.90;19.50
10304;DHT22;5197;48.152;8.590;2023-02-15T08:06:39;7.40;17.10
10304;DHT22;5197;48.152;8.590;2023-02-15T08:09:08;7.90;15.00
10304;DHT22;5197;48.152;8.590;2023-02-15T08:11:37;8.40;12.60
10304;DHT22;5197;48.152;8.590;2023-02-15T08:14:07;9.40;11.30
10304;DHT22;5197;48.152;8.590;2023-02-15T08:16:45;9.10;8.80
10304;DHT22;5197;48.152;8.590;2023-02-15T08:19:23;9.60;7.30
10304;DHT22;5197;48.152;8.590;2023-02-15T08:21:55;10.10;4.90
10304;DHT22;5197;48.152;8.590;2023-02-15T08:24:30;10.50;2.80
10304;DHT22;5197;48.152;8.590;2023-02-15T08:26:58;10.90;1.00
10304;DHT22;5197;48.152;8.590;2023-02-15T08:29:27;11.20;1.00
10304;DHT22;5197;48.152;8.590;2023-02-15T08:31:58;11.30;1.00
10304;DHT22;5197;48.152;8.590;2023-02-15T08:34:34;11.70;1.00
10304;DHT22;5197;48.152;8.590;2023-02-15T08:37:01;12.10;1.00
10304;DHT22;5197;48.152;8.590;2023-02-15T08:39:28;12.50;1.00
10304;DHT22;5197;48.152;8.590;2023-02-15T08:41:55;12.80;1.00
10304;DHT22;5197;48.152;8.590;2023-02-15T08:44:22;13.10;1.00
10304;DHT22;5197;48.152;8.590;2023-02-15T08:46:49;13.20;1.00
10304;DHT22;5197;48.152;8.590;2023-02-15T08:49:20;11.50;1.00
10304;DHT22;5197;48.152;8.590;2023-02-15T08:51:49;12.20;1.00
10304;DHT22;5197;48.152;8.590;2023-02-15T08:54:18;11.50;1.00
10304;DHT22;5197;48.152;8.590;2023-02-15T08:56:45;11.30;1.00
10304;DHT22;5197;48.152;8.590;2023-02-15T08:59:18;10.10;1.00
10304;DHT22;5197;48.152;8.590;2023-02-15T09:01:47;9.60;1.00
10304;DHT22;5197;48.152;8.590;2023-02-15T09:04:14;9.20;1.00
10304;DHT22;5197;48.152;8.590;2023-02-15T09:06:43;8.70;1.00
10304;DHT22;5197;48.152;8.590;2023-02-15T09:09:14;8.30;1.00
10304;DHT22;5197;48.152;8.590;2023-02-15T09:11:42;8.10;1.00
10304;DHT22;5197;48.152;8.590;2023-02-15T09:14:12;7.90;1.00
10304;DHT22;5197;48.152;8.590;2023-02-15T09:16:44;7.60;1.00
10304;DHT22;5197;48.152;8.590;2023-02-15T09:19:15;7.40;1.00
10304;DHT22;5197;48.152;8.590;2023-02-15T09:21:42;7.30;1.00
10304;DHT22;5197;48.152;8.590;2023-02-15T09:24:10;7.20;1.00
10304;DHT22;5197;48.152;8.590;2023-02-15T09:26:40;7.10;1.00
10304;DHT22;5197;48.152;8.590;2023-02-15T09:29:09;7.10;1.00
10304;DHT22;5197;48.152;8.590;2023-02-15T09:31:47;7.00;1.00
10304;DHT22;5197;48.152;8.590;2023-02-15T09:34:18;7.00;1.00
10304;DHT22;5197;48.152;8.590;2023-02-15T09:36:45;7.00;1.00
10304;DHT22;5197;48.152;8.590;2023-02-15T09:39:24;7.00;1.00
10304;DHT22;5197;48.152;8.590;2023-02-15T09:47:43;7.00;1.00
10304;DHT22;5197;48.152;8.590;2023-02-15T09:58:53;7.00;1.00
10304;DHT22;5197;48.152;8.590;2023-02-15T10:07:10;7.10;1.00
10304;DHT22;5197;48.152;8.590;2023-02-15T10:12:32;7.30;1.00
10304;DHT22;5197;48.152;8.590;2023-02-15T10:15:09;7.30;1.00
10304;DHT22;5197;48.152;8.590;2023-02-15T10:26:18;7.60;1.00
10304;DHT22;5197;48.152;8.590;2023-02-15T10:31:26;7.80;1.00
10304;DHT22;5197;48.152;8.590;2023-02-15T10:50:46;8.40;1.00
10304;DHT22;5197;48.152;8.590;2023-02-15T10:56:03;8.60;1.00
10304;DHT22;5197;48.152;8.590;2023-02-15T10:59:17;8.70;1.00
10304;DHT22;5197;48.152;8.590;2023-02-15T11:01:41;8.80;1.00
10304;DHT22;5197;48.152;8.590;2023-02-15T11:04:55;9.00;1.00
10304;DHT22;5197;48.152;8.590;2023-02-15T11:07:40;9.10;1.00
10304;DHT22;5197;48.152;8.590;2023-02-15T11:12:47;9.30;1.00
10304;DHT22;5197;48.152;8.590;2023-02-15T11:15:24;9.40;1.00
10304;DHT22;5197;48.152;8.590;2023-02-15T11:17:59;9.50;1.00
10304;DHT22;5197;48.152;8.590;2023-02-15T11:20:37;9.60;1.00
10304;DHT22;5197;48.152;8.590;2023-02-15T11:23:13;9.70;1.00
10304;DHT22;5197;48.152;8.590;2023-02-15T11:25:52;9.70;1.00
10304;DHT22;5197;48.152;8.590;2023-02-15T11:28:45;9.80;1.00
10304;DHT22;5197;48.152;8.590;2023-02-15T11:31:22;10.00;1.00
10304;DHT22;5197;48.152;8.590;2023-02-15T11:33:58;10.10;1.00
10304;DHT22;5197;48.152;8.590;2023-02-15T11:36:32;10.20;1.00
10304;DHT22;5197;48.152;8.590;2023-02-15T11:39:09;10.20;1.00
10304;DHT22;5197;48.152;8.590;2023-02-15T11:41:59;11.00;1.00
10304;DHT22;5197;48.152;8.590;2023-02-15T11:45:04;10.60;1.00
10304;DHT22;5197;48.152;8.590;2023-02-15T11:47:33;10.70;1.00
10304;DHT22;5197;48.152;8.590;2023-02-15T11:50:00;10.80;1.00
10304;DHT22;5197;48.152;8.590;2023-02-15T11:52:27;11.00;1.00
10304;DHT22;5197;48.152;8.590;2023-02-15T11:54:54;11.10;1.00
10304;DHT22;5197;48.152;8.590;2023-02-15T12:00:25;11.40;1.00
10304;DHT22;5197;48.152;8.590;2023-02-15T12:02:57;11.50;1.00
10304;DHT22;5197;48.152;8.590;2023-02-15T12:05:27;11.50;1.00
10304;DHT22;5197;48.152;8.590;2023-02-15T12:07:57;11.60;1.00
10304;DHT22;5197;48.152;8.590;2023-02-15T12:10:36;11.70;1.00
10304;DHT22;5197;48.152;8.590;2023-02-15T12:13:11;11.70;1.00
10304;DHT22;5197;48.152;8.590;2023-02-15T12:15:41;11.70;1.00
10304;DHT22;5197;48.152;8.590;2023-02-15T12:20:59;11.80;1.00
10304;DHT22;5197;48.152;8.590;2023-02-15T12:23:28;11.90;1.00
10304;DHT22;5197;48.152;8.590;2023-02-15T12:25:56;11.90;1.00
10304;DHT22;5197;48.152;8.590;2023-02-15T12:28:34;12.10;1.00
10304;DHT22;5197;48.152;8.590;2023-02-15T12:31:26;12.20;1.00
10304;DHT22;5197;48.152;8.590;2023-02-15T12:33:55;12.30;1.00
10304;DHT22;5197;48.152;8.590;2023-02-15T12:36:47;12.30;1.00
10304;DHT22;5197;48.152;8.590;2023-02-15T12:39:24;12.40;1.00
10304;DHT22;5197;48.152;8.590;2023-02-15T12:44:22;12.80;1.00
10304;DHT22;5197;48.152;8.590;2023-02-15T12:49:43;12.70;1.00
10304;DHT22;5197;48.152;8.590;2023-02-15T12:54:47;12.90;1.00
10304;DHT22;5197;48.152;8.590;2023-02-15T12:57:24;12.70;1.00
10304;DHT22;5197;48.152;8.590;2023-02-15T13:00:24;12.80;1.00
10304;DHT22;5197;48.152;8.590;2023-02-15T13:02:53;12.90;1.00
10304;DHT22;5197;48.152;8.590;2023-02-15T13:05:34;13.40;1.00
10304;DHT22;5197;48.152;8.590;2023-02-15T13:08:30;13.10;1.00
10304;DHT22;5197;48.152;8.590;2023-02-15T13:11:08;13.20;1.00
10304;DHT22;5197;48.152;8.590;2023-02-15T13:14:26;14.10;1.00
10304;DHT22;5197;48.152;8.590;2023-02-15T13:16:58;13.30;1.00
10304;DHT22;5197;48.152;8.590;2023-02-15T13:19:33;15.20;1.00
10304;DHT22;5197;48.152;8.590;2023-02-15T13:22:05;13.30;1.00
10304;DHT22;5197;48.152;8.590;2023-02-15T13:24:39;13.50;1.00
10304;DHT22;5197;48.152;8.590;2023-02-15T13:27:12;15.50;1.00
10304;DHT22;5197;48.152;8.590;2023-02-15T13:29:44;15.20;1.00
10304;DHT22;5197;48.152;8.590;2023-02-15T13:32:28;15.40;1.00
10304;DHT22;5197;48.152;8.590;2023-02-15T13:34:59;13.70;1.00
10304;DHT22;5197;48.152;8.590;2023-02-15T13:40:51;13.70;1.00
10304;DHT22;5197;48.152;8.590;2023-02-15T13:54:36;13.90;1.00
10304;DHT22;5197;48.152;8.590;2023-02-15T14:06:08;14.10;1.00
10304;DHT22;5197;48.152;8.590;2023-02-15T14:09:03;14.00;1.00
10304;DHT22;5197;48.152;8.590;2023-02-15T14:16:53;14.10;1.00
10304;DHT22;5197;48.152;8.590;2023-02-15T14:19:37;14.10;1.00
10304;DHT22;5197;48.152;8.590;2023-02-15T14:25:02;14.20;1.00
10304;DHT22;5197;48.152;8.590;2023-02-15T14:30:33;14.10;1.00
10304;DHT22;5197;48.152;8.590;2023-02-15T14:33:18;14.20;1.00
10304;DHT22;5197;48.152;8.590;2023-02-15T14:35:48;15.50;1.00
10304;DHT22;5197;48.152;8.590;2023-02-15T14:41:04;14.30;1.00
10304;DHT22;5197;48.152;8.590;2023-02-15T14:43:59;14.30;1.00
10304;DHT22;5197;48.152;8.590;2023-02-15T14:46:46;14.30;1.00
10304;DHT22;5197;48.152;8.590;2023-02-15T14:49:47;14.40;1.00
10304;DHT22;5197;48.152;8.590;2023-02-15T14:52:14;14.70;1.00
10304;DHT22;5197;48.152;8.590;2023-02-15T14:59:53;15.00;1.00
10304;DHT22;5197;48.152;8.590;2023-02-15T15:02:31;14.50;1.00
10304;DHT22;5197;48.152;8.590;2023-02-15T15:05:07;14.50;1.00
10304;DHT22;5197;48.152;8.590;2023-02-15T15:07:54;16.00;1.00
10304;DHT22;5197;48.152;8.590;2023-02-15T15:18:04;14.50;1.00
10304;DHT22;5197;48.152;8.590;2023-02-15T15:20:46;15.80;1.00
10304;DHT22;5197;48.152;8.590;2023-02-15T15:25:51;14.50;1.00
10304;DHT22;5197;48.152;8.590;2023-02-15T15:34:22;14.40;1.00
10304;DHT22;5197;48.152;8.590;2023-02-15T15:45:44;13.90;1.00
10304;DHT22;5197;48.152;8.590;2023-02-15T15:48:52;13.70;1.00
10304;DHT22;5197;48.152;8.590;2023-02-15T15:51:29;13.60;1.00
10304;DHT22;5197;48.152;8.590;2023-02-15T15:53:57;13.50;1.00
10304;DHT22;5197;48.152;8.590;2023-02-15T15:56:34;14.90;1.00
10304;DHT22;5197;48.152;8.590;2023-02-15T15:59:06;13.80;1.00
10304;DHT22;5197;48.152;8.590;2023-02-15T16:01:41;13.00;1.00
10304;DHT22;5197;48.152;8.590;2023-02-15T16:04:14;13.70;1.00
10304;DHT22;5197;48.152;8.590;2023-02-15T16:06:48;12.80;1.00
10304;DHT22;5197;48.152;8.590;2023-02-15T16:09:23;12.70;1.00
10304;DHT22;5197;48.152;8.590;2023-02-15T16:11:53;13.20;1.00
10304;DHT22;5197;48.152;8.590;2023-02-15T16:14:26;12.50;1.00
10304;DHT22;5197;48.152;8.590;2023-02-15T16:17:00;12.40;1.00
10304;DHT22;5197;48.152;8.590;2023-02-15T16:19:34;12.20;1.00
10304;DHT22;5197;48.152;8.590;2023-02-15T16:22:02;12.10;1.00
10304;DHT22;5197;48.152;8.590;2023-02-15T16:27:37;11.90;1.00
10304;DHT22;5197;48.152;8.590;2023-02-15T16:30:31;11.70;1.00
10304;DHT22;5197;48.152;8.590;2023-02-15T16:33:12;11.60;1.00
10304;DHT22;5197;48.152;8.590;2023-02-15T16:35:56;11.50;1.00
10304;DHT22;5197;48.152;8.590;2023-02-15T16:41:14;11.80;1.00
10304;DHT22;5197;48.152;8.590;2023-02-15T16:43:44;11.00;1.00
10304;DHT22;5197;48.152;8.590;2023-02-15T16:48:45;10.90;1.00
10304;DHT22;5197;48.152;8.590;2023-02-15T16:51:24;10.70;1.00
10304;DHT22;5197;48.152;8.590;2023-02-15T16:53:56;10.60;1.00
10304;DHT22;5197;48.152;8.590;2023-02-15T16:56:29;10.60;1.00
10304;DHT22;5197;48.152;8.590;2023-02-15T16:58:57;10.50;1.00
10304;DHT22;5197;48.152;8.590;2023-02-15T17:01:28;10.40;1.00
10304;DHT22;5197;48.152;8.590;2023-02-15T17:07:19;10.30;1.00
10304;DHT22;5197;48.152;8.590;2023-02-15T17:09:56;10.20;1.00
10304;DHT22;5197;48.152;8.590;2023-02-15T17:12:46;10.10;1.00
10304;DHT22;5197;48.152;8.590;2023-02-15T17:15:35;10.00;1.00
10304;DHT22;5197;48.152;8.590;2023-02-15T17:18:17;10.00;1.00
10304;DHT22;5197;48.152;8.590;2023-02-15T17:20:46;9.90;1.00
10304;DHT22;5197;48.152;8.590;2023-02-15T17:23:27;9.80;1.00
10304;DHT22;5197;48.152;8.590;2023-02-15T17:25:56;9.80;1.00
10304;DHT22;5197;48.152;8.590;2023-02-15T17:28:26;9.80;1.00
10304;DHT22;5197;48.152;8.590;2023-02-15T17:30:55;9.80;1.00
10304;DHT22;5197;48.152;8.590;2023-02-15T17:33:26;9.70;1.00
10304;DHT22;5197;48.152;8.590;2023-02-15T17:36:22;9.70;1.00
10304;DHT22;5197;48.152;8.590;2023-02-15T17:39:19;9.70;1.00
10304;DHT22;5197;48.152;8.590;2023-02-15T17:41:46;9.60;1.00
10304;DHT22;5197;48.152;8.590;2023-02-15T17:44:14;9.50;1.00
10304;DHT22;5197;48.152;8.590;2023-02-15T17:46:42;9.40;1.00
10304;DHT22;5197;48.152;8.590;2023-02-15T17:49:37;9.30;1.00
10304;DHT22;5197;48.152;8.590;2023-02-15T17:52:04;9.20;1.00
10304;DHT22;5197;48.152;8.590;2023-02-15T17:54:30;8.90;1.00
10304;DHT22;5197;48.152;8.590;2023-02-15T17:57:16;8.80;1.00
10304;DHT22;5197;48.152;8.590;2023-02-15T17:59:43;8.70;1.00
10304;DHT22;5197;48.152;8.590;2023-02-15T18:02:33;8.50;1.00
10304;DHT22;5197;48.152;8.590;2023-02-15T18:05:19;8.50;1.00
10304;DHT22;5197;48.152;8.590;2023-02-15T18:08:13;8.40;1.00
10304;DHT22;5197;48.152;8.590;2023-02-15T18:11:01;8.50;1.00
10304;DHT22;5197;48.152;8.590;2023-02-15T18:13:47;8.50;1.00
10304;DHT22;5197;48.152;8.590;2023-02-15T18:16:24;8.40;1.00
10304;DHT22;5197;48.152;8.590;2023-02-15T18:18:53;8.30;1.00
10304;DHT22;5197;48.152;8.590;2023-02-15T18:21:23;8.10;1.00
10304;DHT22;5197;48.152;8.590;2023-02-15T18:23:53;8.00;1.00
10304;DHT22;5197;48.152;8.590;2023-02-15T18:26:23;7.90;1.00
10304;DHT22;5197;48.152;8.590;2023-02-15T18:28:51;8.60;1.00
10304;DHT22;5197;48.152;8.590;2023-02-15T18:31:18;7.70;1.00
10304;DHT22;5197;48.152;8.590;2023-02-15T18:33:51;7.70;1.00
10304;DHT22;5197;48.152;8.590;2023-02-15T18:36:23;7.60;1.00
10304;DHT22;5197;48.152;8.590;2023-02-15T18:38:56;7.40;1.00
10304;DHT22;5197;48.152;8.590;2023-02-15T18:41:25;7.30;1.00
10304;DHT22;5197;48.152;8.590;2023-02-15T18:43:54;7.30;1.00
10304;DHT22;5197;48.152;8.590;2023-02-15T18:46:23;7.20;1.00
10304;DHT22;5197;48.152;8.590;2023-02-15T18:48:51;7.20;1.00
10304;DHT22;5197;48.152;8.590;2023-02-15T18:51:22;7.10;1.00
10304;DHT22;5197;48.152;8.590;2023-02-15T18:53:52;7.10;1.00
10304;DHT22;5197;48.152;8.590;2023-02-15T18:56:21;7.20;1.00
10304;DHT22;5197;48.152;8.590;2023-02-15T18:58:48;7.20;1.00
10304;DHT22;5197;48.152;8.590;2023-02-15T19:01:18;7.20;1.00
10304;DHT22;5197;48.152;8.590;2023-02-15T19:03:50;7.30;1.00
10304;DHT22;5197;48.152;8.590;2023-02-15T19:06:19;7.20;1.00
10304;DHT22;5197;48.152;8.590;2023-02-15T19:08:48;7.20;1.00
10304;DHT22;5197;48.152;8.590;2023-02-15T19:11:20;7.20;1.00
10304;DHT22;5197;48.152;8.590;2023-02-15T19:13:50;7.20;1.00
10304;DHT22;5197;48.152;8.590;2023-02-15T19:18:53;7.20;1.00
10304;DHT22;5197;48.152;8.590;2023-02-15T19:21:20;7.20;1.00
10304;DHT22;5197;48.152;8.590;2023-02-15T19:23:53;7.20;1.00
10304;DHT22;5197;48.152;8.590;2023-02-15T19:26:20;7.10;1.00
10304;DHT22;5197;48.152;8.590;2023-02-15T19:28:47;7.00;1.00
10304;DHT22;5197;48.152;8.590;2023-02-15T19:31:14;7.00;1.00